Time;durP1;ratioP1;P1;durP2;ratioP2;P2;SDS_P1;SDS_P2;PMS_P1;PMS_P2;Temp;Humidity;BMP_temperature;BMP_pressure;BME280_temperature;BME280_humidity;BME280_pressure;Samples;Min_cycle;Max_cycle;Signal;HPM_P1;HPM_P2
2021/04/11 00:00:08;;;;;;;9.90;5.82;;;3.80;92.30;;;;;;5028799;28;20034;-46
2021/04/11 00:02:34;;;;;;;9.45;6.53;;;3.70;92.70;;;;;;5016833;28;20046;-45
2021/04/11 00:05:00;;;;;;;11.93;6.95;;;3.50;93.00;;;;;;5031592;28;20037;-47
2021/04/11 00:07:25;;;;;;;11.05;6.63;;;3.60;93.00;;;;;;5030323;28;20045;-48
2021/04/11 00:09:51;;;;;;;15.25;8.02;;;3.50;92.80;;;;;;5016714;28;20041;-48
2021/04/11 00:12:17;;;;;;;15.35;8.82;;;3.50;92.80;;;;;;5032147;28;20124;-47
2021/04/11 00:14:42;;;;;;;12.77;8.18;;;3.60;92.70;;;;;;5017513;28;20116;-46
2021/04/11 00:17:08;;;;;;;11.13;7.05;;;3.50;92.90;;;;;;5028429;28;20037;-47
2021/04/11 00:19:33;;;;;;;13.68;7.25;;;3.50;93.40;;;;;;5027111;28;20128;-47
2021/04/11 00:21:59;;;;;;;10.10;6.88;;;3.50;93.40;;;;;;5030993;28;20034;-45
2021/04/11 00:24:25;;;;;;;8.55;5.85;;;3.60;93.10;;;;;;5030659;28;20486;-48
2021/04/11 00:26:51;;;;;;;9.38;5.38;;;3.50;93.40;;;;;;5023566;28;20046;-45
2021/04/11 00:29:18;;;;;;;8.38;5.45;;;3.60;93.10;;;;;;5024273;28;20552;-44
2021/04/11 00:31:43;;;;;;;11.20;6.60;;;3.70;93.00;;;;;;5028094;28;20038;-49
2021/04/11 00:34:09;;;;;;;9.45;6.75;;;3.70;92.80;;;;;;5030109;28;20067;-46
2021/04/11 00:36:34;;;;;;;10.88;6.90;;;3.70;93.20;;;;;;5030238;28;20049;-46
2021/04/11 00:39:00;;;;;;;11.18;6.55;;;3.60;93.20;;;;;;5046807;28;20099;-45
2021/04/11 00:41:36;;;;;;;10.65;6.70;;;3.70;93.40;;;;;;5031290;28;20124;-45
2021/04/11 00:44:04;;;;;;;11.95;7.15;;;3.60;93.60;;;;;;5031301;28;20042;-46
2021/04/11 00:46:45;;;;;;;9.98;6.18;;;3.60;93.30;;;;;;5030343;28;20061;-46
2021/04/11 00:49:17;;;;;;;10.80;7.00;;;3.60;93.40;;;;;;5031748;28;20041;-47
2021/04/11 00:51:43;;;;;;;10.95;7.90;;;3.60;93.30;;;;;;5029431;28;20391;-47
2021/04/11 00:54:09;;;;;;;10.82;7.07;;;3.70;93.30;;;;;;5031313;28;20477;-47
2021/04/11 00:56:36;;;;;;;12.85;8.25;;;3.70;93.40;;;;;;5029955;28;20072;-47
2021/04/11 00:59:03;;;;;;;8.90;5.82;;;3.60;93.30;;;;;;5030909;28;20505;-46
2021/04/11 01:01:30;;;;;;;13.43;7.78;;;3.90;92.90;;;;;;5029391;28;20053;-48
2021/04/11 01:03:56;;;;;;;13.73;7.10;;;3.70;93.00;;;;;;5030415;28;20079;-47
2021/04/11 01:06:28;;;;;;;9.35;5.93;;;3.80;93.00;;;;;;5029286;28;20042;-47
2021/04/11 01:08:55;;;;;;;9.07;5.53;;;3.80;93.20;;;;;;5028208;28;20048;-47
2021/04/11 01:11:26;;;;;;;10.02;6.70;;;3.90;92.80;;;;;;5030859;28;20040;-47
2021/04/11 01:13:55;;;;;;;11.03;6.87;;;3.90;92.80;;;;;;5030274;28;20552;-48
2021/04/11 01:16:22;;;;;;;8.15;4.70;;;3.80;93.10;;;;;;5029583;28;20037;-49
2021/04/11 01:18:49;;;;;;;9.80;5.57;;;3.90;92.90;;;;;;5026518;28;20038;-47
2021/04/11 01:21:48;;;;;;;8.38;5.40;;;3.90;92.90;;;;;;5023931;28;20037;-47
2021/04/11 01:24:20;;;;;;;11.68;7.10;;;4.00;92.40;;;;;;5030490;28;20213;-47
2021/04/11 01:26:50;;;;;;;12.57;6.88;;;3.90;92.80;;;;;;5029424;28;20120;-47
2021/04/11 01:29:16;;;;;;;9.82;6.18;;;3.80;93.10;;;;;;5030414;28;20046;-47
2021/04/11 01:31:43;;;;;;;11.32;5.95;;;3.70;93.20;;;;;;5030361;28;20033;-48
2021/04/11 01:34:11;;;;;;;11.57;6.70;;;3.90;92.90;;;;;;5029483;28;20053;-47
2021/04/11 01:36:41;;;;;;;10.82;6.93;;;3.70;93.20;;;;;;5026901;28;20033;-46
2021/04/11 01:39:20;;;;;;;11.32;6.20;;;3.70;93.40;;;;;;5033980;28;20513;-48
2021/04/11 01:41:47;;;;;;;7.20;5.07;;;3.70;93.70;;;;;;5030103;28;20033;-46
2021/04/11 01:44:17;;;;;;;12.80;6.90;;;3.90;93.20;;;;;;5033559;28;20579;-49
2021/04/11 01:46:44;;;;;;;12.52;7.72;;;3.90;92.90;;;;;;5034431;28;20103;-49
2021/04/11 01:49:10;;;;;;;10.25;7.30;;;3.70;93.20;;;;;;5023577;28;20037;-48
2021/04/11 01:51:45;;;;;;;11.13;5.13;;;3.70;93.60;;;;;;5032335;28;20057;-47
2021/04/11 01:54:15;;;;;;;10.95;6.88;;;3.80;93.80;;;;;;5021573;28;20127;-46
2021/04/11 01:56:42;;;;;;;11.88;7.13;;;4.00;93.30;;;;;;5035191;28;20049;-47
2021/04/11 01:59:14;;;;;;;10.18;6.50;;;3.90;93.30;;;;;;5034637;28;20045;-49
2021/04/11 02:01:41;;;;;;;11.73;6.83;;;3.90;93.40;;;;;;5028830;28;20048;-48
2021/04/11 02:04:10;;;;;;;13.70;7.20;;;3.80;93.60;;;;;;5036995;28;20041;-47
2021/04/11 02:06:43;;;;;;;10.52;6.90;;;3.80;93.70;;;;;;5035511;28;20061;-48
2021/04/11 02:09:12;;;;;;;;;;;3.90;93.60;;;;;;5026936;28;20038;-46
2021/04/11 02:11:39;;;;;;;11.70;7.43;;;3.90;93.80;;;;;;5033252;28;19924;-47
2021/04/11 02:14:05;;;;;;;11.38;8.15;;;3.80;93.80;;;;;;5032352;28;20429;-47
2021/04/11 02:16:33;;;;;;;11.50;7.25;;;3.80;93.90;;;;;;5026672;28;20048;-46
2021/04/11 02:19:26;;;;;;;13.40;8.85;;;3.80;94.10;;;;;;5027860;28;20508;-47
2021/04/11 02:22:05;;;;;;;12.32;7.97;;;3.90;94.00;;;;;;5034097;28;20150;-47
2021/04/11 02:24:31;;;;;;;9.65;6.30;;;3.80;94.20;;;;;;5026995;28;20048;-46
2021/04/11 02:26:56;;;;;;;10.43;7.43;;;3.90;94.30;;;;;;5034843;28;20490;-47
2021/04/11 02:29:24;;;;;;;13.90;8.15;;;3.90;94.10;;;;;;5028987;28;20045;-46
2021/04/11 02:31:49;;;;;;;15.40;7.78;;;3.80;94.20;;;;;;5036080;28;20049;-46
2021/04/11 02:34:30;;;;;;;11.75;6.97;;;3.90;94.40;;;;;;5048901;28;20120;-48
2021/04/11 02:36:59;;;;;;;9.07;6.35;;;3.90;94.20;;;;;;5021900;28;20061;-46
2021/04/11 02:39:29;;;;;;;9.20;6.47;;;4.00;93.70;;;;;;5034511;28;20041;-47
2021/04/11 02:41:56;;;;;;;7.82;5.75;;;4.00;93.80;;;;;;5033521;28;20037;-45
2021/04/11 02:44:22;;;;;;;8.77;5.05;;;4.00;93.90;;;;;;5031409;28;20033;-47
2021/04/11 02:46:49;;;;;;;9.57;5.68;;;4.10;93.50;;;;;;5030716;28;20050;-46
2021/04/11 02:49:18;;;;;;;6.60;4.78;;;4.10;93.60;;;;;;5023907;28;20068;-48
2021/04/11 02:51:45;;;;;;;8.55;5.65;;;4.00;93.80;;;;;;5032485;28;20060;-45
2021/04/11 02:54:15;;;;;;;9.32;5.45;;;3.90;93.80;;;;;;5033945;28;20384;-47
2021/04/11 02:56:42;;;;;;;6.78;4.63;;;3.90;93.90;;;;;;5027526;28;20050;-46
2021/04/11 02:59:12;;;;;;;8.35;4.55;;;4.10;93.50;;;;;;5029656;28;20475;-45
2021/04/11 03:01:41;;;;;;;7.22;5.13;;;4.00;93.60;;;;;;5031193;28;20406;-47
2021/04/11 03:04:10;;;;;;;8.95;5.10;;;3.90;93.70;;;;;;5031208;28;20068;-46
2021/04/11 03:06:39;;;;;;;6.28;4.65;;;4.00;93.60;;;;;;5029595;28;20417;-45
2021/04/11 03:09:10;;;;;;;7.38;5.25;;;4.00;93.70;;;;;;5031667;28;20069;-47
2021/04/11 03:11:41;;;;;;;7.68;5.15;;;4.00;93.80;;;;;;5031756;28;20104;-47
2021/04/11 03:14:10;;;;;;;7.60;4.60;;;3.90;93.70;;;;;;5028435;28;20105;-47
2021/04/11 03:16:38;;;;;;;4.38;3.10;;;3.90;94.00;;;;;;5028614;28;20075;-47
2021/04/11 03:19:05;;;;;;;6.95;4.20;;;3.90;94.00;;;;;;5033411;28;20080;-47
2021/04/11 03:21:33;;;;;;;7.20;4.13;;;4.00;93.70;;;;;;5028656;28;20155;-47
2021/04/11 03:23:59;;;;;;;5.90;3.83;;;4.00;93.70;;;;;;5026894;28;20046;-47
2021/04/11 03:26:32;;;;;;;5.30;3.92;;;4.00;93.70;;;;;;5031060;28;20490;-47
2021/04/11 03:29:28;;;;;;;5.35;3.88;;;3.90;94.00;;;;;;5031334;28;20413;-47
2021/04/11 03:32:19;;;;;;;7.55;3.75;;;3.90;93.70;;;;;;5027877;28;20044;-47
2021/04/11 03:34:48;;;;;;;4.80;3.05;;;4.00;93.80;;;;;;5024704;28;20077;-47
2021/04/11 03:37:17;;;;;;;5.25;3.60;;;3.90;93.80;;;;;;5030322;28;20135;-47
2021/04/11 03:39:43;;;;;;;7.47;3.28;;;4.00;93.90;;;;;;5029423;28;20112;-47
2021/04/11 03:42:13;;;;;;;8.88;3.80;;;3.90;93.90;;;;;;5025855;28;20511;-47
2021/04/11 03:44:39;;;;;;;6.13;3.80;;;3.90;94.00;;;;;;5026005;28;20072;-47
2021/04/11 03:47:31;;;;;;;5.40;3.47;;;3.80;94.20;;;;;;5026133;28;20041;-50
2021/04/11 03:50:10;;;;;;;5.15;3.40;;;3.90;94.20;;;;;;5028394;28;20058;-49
2021/04/11 03:52:45;;;;;;;3.60;2.75;;;3.80;94.30;;;;;;5028951;28;20410;-48
2021/04/11 03:55:16;;;;;;;3.95;2.53;;;3.90;94.20;;;;;;5027111;28;20045;-47
2021/04/11 03:57:51;;;;;;;4.82;2.47;;;3.90;94.00;;;;;;5027976;28;20048;-47
2021/04/11 04:00:24;;;;;;;6.32;2.88;;;3.80;94.20;;;;;;5022242;28;20423;-47
2021/04/11 04:02:53;;;;;;;3.25;2.22;;;3.80;94.00;;;;;;5023553;28;20033;-47
2021/04/11 04:05:23;;;;;;;3.78;2.10;;;3.90;93.80;;;;;;5027073;28;20033;-47
2021/04/11 04:07:54;;;;;;;2.90;2.20;;;3.80;93.90;;;;;;5030423;28;20041;-47
2021/04/11 04:10:24;;;;;;;4.80;2.30;;;3.80;93.90;;;;;;5028585;28;20039;-47
2021/04/11 04:13:22;;;;;;;2.40;1.88;;;3.70;94.10;;;;;;5030883;28;20044;-48
2021/04/11 04:15:48;;;;;;;2.80;2.13;;;3.70;94.10;;;;;;5029985;28;20044;-48
2021/04/11 04:18:28;;;;;;;5.00;2.08;;;3.70;94.10;;;;;;5030887;28;20038;-47
2021/04/11 04:21:19;;;;;;;2.38;1.70;;;3.70;94.10;;;;;;5027479;28;20042;-47
2021/04/11 04:24:03;;;;;;;2.15;1.80;;;3.90;93.50;;;;;;5032240;28;20045;-47
2021/04/11 04:26:40;;;;;;;5.28;2.15;;;3.80;93.40;;;;;;5030735;28;20677;-47
2021/04/11 04:29:24;;;;;;;3.28;2.38;;;3.80;93.70;;;;;;5027054;28;20383;-46
2021/04/11 04:31:53;;;;;;;3.67;1.88;;;3.80;93.70;;;;;;5030005;28;20124;-47
2021/04/11 04:34:32;;;;;;;3.47;1.90;;;3.70;93.90;;;;;;5030767;28;20038;-46
2021/04/11 04:37:14;;;;;;;5.43;2.15;;;3.70;94.10;;;;;;5027645;28;20105;-47
2021/04/11 04:40:01;;;;;;;4.75;2.22;;;3.70;93.80;;;;;;5031435;28;20041;-47
2021/04/11 04:42:40;;;;;;;3.35;1.95;;;3.80;93.60;;;;;;5046784;28;20052;-47
2021/04/11 04:45:27;;;;;;;3.17;1.90;;;3.70;93.80;;;;;;5025936;28;20029;-47
2021/04/11 04:48:09;;;;;;;4.53;2.15;;;3.70;93.90;;;;;;5030088;28;20572;-47
2021/04/11 04:50:50;;;;;;;3.92;1.95;;;3.70;93.90;;;;;;5029449;28;20136;-47
2021/04/11 04:53:23;;;;;;;3.78;2.28;;;3.70;94.00;;;;;;5032306;28;20470;-46
2021/04/11 04:55:53;;;;;;;2.22;1.67;;;3.60;94.20;;;;;;5011951;28;20045;-46
2021/04/11 04:58:38;;;;;;;2.97;1.80;;;3.70;94.00;;;;;;5028714;28;20042;-45
2021/04/11 05:01:16;;;;;;;3.80;1.85;;;3.70;93.70;;;;;;5045558;28;20073;-47
2021/04/11 05:03:46;;;;;;;3.30;2.08;;;3.70;93.80;;;;;;5027410;28;20041;-46
2021/04/11 05:06:32;;;;;;;3.05;1.90;;;3.70;93.60;;;;;;5032039;28;20045;-47
2021/04/11 05:09:07;;;;;;;6.53;2.88;;;3.60;94.00;;;;;;5029840;28;20566;-47
2021/04/11 05:11:57;;;;;;;3.00;2.10;;;3.60;94.00;;;;;;5030295;28;20041;-48
2021/04/11 05:14:30;;;;;;;6.53;2.45;;;3.60;94.10;;;;;;5031129;28;20528;-48
2021/04/11 05:17:03;;;;;;;4.20;2.03;;;3.60;94.20;;;;;;5028318;28;20147;-47
2021/04/11 05:19:41;;;;;;;3.25;1.90;;;3.60;94.10;;;;;;5029420;28;20060;-47
2021/04/11 05:22:32;;;;;;;3.92;1.92;;;3.70;93.80;;;;;;5032212;28;20426;-47
2021/04/11 05:25:08;;;;;;;5.45;2.13;;;3.70;93.80;;;;;;5032665;28;20470;-47
2021/04/11 05:27:56;;;;;;;4.60;2.20;;;3.60;94.00;;;;;;5021813;28;20132;-48
2021/04/11 05:30:35;;;;;;;5.10;2.15;;;3.60;94.00;;;;;;5027082;28;20033;-47
2021/04/11 05:33:00;;;;;;;3.40;2.40;;;3.60;94.10;;;;;;5034327;28;20099;-48
2021/04/11 05:35:30;;;;;;;4.53;2.13;;;3.60;94.00;;;;;;5028271;28;20045;-46
2021/04/11 05:38:34;;;;;;;3.55;1.90;;;3.70;94.20;;;;;;5032579;28;20049;-47
2021/04/11 05:41:12;;;;;;;4.43;2.03;;;3.70;94.30;;;;;;5024122;28;20042;-47
2021/04/11 05:43:57;;;;;;;3.03;1.88;;;3.70;94.20;;;;;;5029036;28;20091;-47
2021/04/11 05:46:27;;;;;;;2.40;1.50;;;3.70;94.20;;;;;;5024566;28;20061;-48
2021/04/11 05:49:09;;;;;;;4.90;1.50;;;3.70;94.30;;;;;;5026915;28;20043;-47
2021/04/11 05:51:43;;;;;;;3.25;1.45;;;3.70;94.10;;;;;;5021385;28;20113;-47
2021/04/11 05:54:29;;;;;;;4.38;1.65;;;3.80;94.10;;;;;;5028579;28;20127;-48
2021/04/11 05:57:00;;;;;;;2.50;1.50;;;3.70;94.00;;;;;;5032101;28;20497;-47
2021/04/11 05:59:38;;;;;;;1.85;1.30;;;3.70;94.00;;;;;;5027919;28;20052;-47
2021/04/11 06:02:05;;;;;;;2.58;1.20;;;3.80;93.90;;;;;;5033303;28;20131;-47
2021/04/11 06:04:50;;;;;;;2.28;1.40;;;3.80;93.60;;;;;;5033193;28;20084;-48
2021/04/11 06:07:38;;;;;;;5.20;1.40;;;3.70;93.60;;;;;;5031627;28;20041;-48
2021/04/11 06:10:13;;;;;;;5.53;1.85;;;3.80;93.70;;;;;;5018527;28;20048;-47
2021/04/11 06:12:58;;;;;;;5.18;1.70;;;3.80;93.60;;;;;;5028745;28;20110;-47
2021/04/11 06:15:32;;;;;;;3.38;1.40;;;3.90;93.50;;;;;;5024709;28;20037;-47
2021/04/11 06:17:59;;;;;;;4.90;1.67;;;4.00;93.10;;;;;;5029458;28;20048;-47
2021/04/11 06:20:27;;;;;;;2.25;1.50;;;3.90;93.10;;;;;;5024941;28;20100;-48
2021/04/11 06:23:02;;;;;;;2.58;1.40;;;3.90;93.30;;;;;;5026896;28;20056;-47
2021/04/11 06:25:52;;;;;;;3.15;1.75;;;3.90;93.10;;;;;;5021039;28;20054;-48
2021/04/11 06:28:48;;;;;;;5.32;1.75;;;3.90;93.10;;;;;;5030306;28;20037;-47
2021/04/11 06:31:27;;;;;;;4.80;1.80;;;3.90;93.00;;;;;;5026312;28;20044;-47
2021/04/11 06:34:04;;;;;;;4.65;1.50;;;4.00;93.00;;;;;;5029221;28;20419;-47
2021/04/11 06:36:39;;;;;;;4.03;1.75;;;4.00;92.50;;;;;;5021155;28;20073;-48
2021/04/11 06:39:11;;;;;;;4.55;2.00;;;4.00;92.80;;;;;;5030191;28;20040;-47
2021/04/11 06:41:43;;;;;;;4.57;2.00;;;4.00;92.90;;;;;;5020046;28;20498;-47
2021/04/11 06:44:23;;;;;;;3.72;2.00;;;4.10;92.70;;;;;;5039243;28;20137;-48
2021/04/11 06:47:16;;;;;;;5.10;2.10;;;4.10;92.70;;;;;;5041265;28;20530;-47
2021/04/11 06:50:15;;;;;;;5.40;2.40;;;4.00;92.50;;;;;;5026492;28;20453;-48
2021/04/11 06:52:49;;;;;;;6.30;2.13;;;4.50;92.80;;;;;;5022950;28;20072;-48
2021/04/11 06:55:51;;;;;;;5.00;2.10;;;4.10;92.70;;;;;;5023452;28;20045;-47
2021/04/11 06:58:36;;;;;;;6.40;2.80;;;4.10;92.70;;;;;;5024508;28;20041;-48
2021/04/11 07:01:13;;;;;;;4.28;2.30;;;4.10;92.80;;;;;;5041029;28;20047;-50
2021/04/11 07:04:05;;;;;;;5.00;2.15;;;4.10;92.70;;;;;;5022431;28;20041;-48
2021/04/11 07:06:55;;;;;;;10.18;2.20;;;4.10;92.50;;;;;;5028197;28;20052;-50
2021/04/11 07:09:23;;;;;;;5.60;2.00;;;4.20;92.40;;;;;;5025024;28;20483;-47
2021/04/11 07:12:22;;;;;;;5.13;2.00;;;4.20;92.50;;;;;;5035126;28;20042;-47
2021/04/11 07:15:05;;;;;;;5.45;2.00;;;4.20;92.40;;;;;;5030765;28;20087;-48
2021/04/11 07:18:08;;;;;;;6.32;2.10;;;4.20;91.80;;;;;;5019408;28;20042;-48
2021/04/11 07:20:53;;;;;;;;;;;4.20;91.60;;;;;;5031318;28;20037;-48
2021/04/11 07:23:36;;;;;;;5.10;2.20;;;4.30;91.80;;;;;;5031667;28;20297;-49
2021/04/11 07:26:35;;;;;;;6.03;1.83;;;4.30;91.60;;;;;;5028126;28;20418;-48
2021/04/11 07:29:28;;;;;;;9.52;2.15;;;4.40;91.50;;;;;;5031966;28;20041;-48
2021/04/11 07:32:07;;;;;;;5.43;2.03;;;4.30;91.60;;;;;;5029452;28;20048;-48
2021/04/11 07:35:11;;;;;;;8.00;1.98;;;4.40;91.50;;;;;;5030058;28;20418;-50
2021/04/11 07:37:56;;;;;;;6.88;1.88;;;4.40;91.20;;;;;;5026741;28;20057;-51
2021/04/11 07:40:41;;;;;;;4.88;1.85;;;4.40;91.10;;;;;;5021968;28;20042;-51
2021/04/11 07:43:45;;;;;;;5.40;1.98;;;4.40;91.00;;;;;;5026286;28;20490;-48
2021/04/11 07:46:41;;;;;;;4.78;1.80;;;4.40;91.30;;;;;;5025713;28;20509;-49
2021/04/11 07:49:31;;;;;;;4.40;1.77;;;4.50;91.60;;;;;;5025522;28;20451;-48
2021/04/11 07:52:32;;;;;;;6.95;1.92;;;4.60;91.20;;;;;;5022063;28;20099;-49
2021/04/11 07:55:22;;;;;;;8.32;2.00;;;4.60;90.40;;;;;;5031173;28;20042;-48
2021/04/11 07:57:54;;;;;;;6.10;1.95;;;4.50;90.50;;;;;;5023441;28;20087;-51
2021/04/11 08:00:47;;;;;;;5.53;1.95;;;4.50;90.70;;;;;;5020021;28;20044;-50
2021/04/11 08:03:19;;;;;;;5.32;1.80;;;4.60;90.30;;;;;;5014829;28;20521;-49
2021/04/11 08:06:06;;;;;;;7.20;2.10;;;4.70;90.70;;;;;;5017651;28;20045;-48
2021/04/11 08:08:58;;;;;;;6.57;2.08;;;4.80;89.90;;;;;;5013742;28;20504;-50
2021/04/11 08:11:45;;;;;;;6.10;1.63;;;4.80;90.40;;;;;;5013147;28;20048;-47
2021/04/11 08:14:43;;;;;;;8.48;2.15;;;4.80;89.40;;;;;;5015207;28;20509;-50
2021/04/11 08:17:36;;;;;;;6.65;1.90;;;4.80;89.80;;;;;;5011660;28;20042;-47
2021/04/11 08:20:19;;;;;;;5.90;2.20;;;5.00;88.30;;;;;;5012529;28;20041;-47
2021/04/11 08:23:13;;;;;;;5.07;1.90;;;4.90;88.60;;;;;;5018025;28;20034;-47
2021/04/11 08:26:02;;;;;;;7.60;2.20;;;4.80;89.40;;;;;;5026247;28;20050;-50
2021/04/11 08:28:52;;;;;;;5.43;1.98;;;4.80;89.00;;;;;;5017516;28;20132;-48
2021/04/11 08:31:52;;;;;;;8.27;2.60;;;4.80;88.60;;;;;;5019886;28;20038;-49
2021/04/11 08:34:40;;;;;;;5.88;2.65;;;4.80;89.00;;;;;;5011545;28;20073;-51
2021/04/11 08:37:40;;;;;;;8.40;2.63;;;4.80;89.60;;;;;;5015373;28;20494;-50
2021/04/11 08:40:06;;;;;;;8.43;2.25;;;4.80;89.40;;;;;;5021031;28;20110;-48
2021/04/11 08:42:35;;;;;;;10.82;2.38;;;4.80;89.10;;;;;;5019256;28;20050;-47
2021/04/11 08:45:19;;;;;;;9.10;2.40;;;4.80;89.20;;;;;;5018590;28;20522;-48
2021/04/11 08:48:27;;;;;;;4.55;2.17;;;4.90;88.50;;;;;;5017324;28;20034;-49
2021/04/11 08:51:04;;;;;;;5.60;2.30;;;4.80;88.50;;;;;;5003437;28;20041;-47
2021/04/11 08:53:38;;;;;;;7.47;2.20;;;4.90;88.20;;;;;;5015005;28;20422;-50
2021/04/11 08:56:06;;;;;;;;;;;4.80;89.30;;;;;;5013807;28;20103;-48
2021/04/11 08:59:09;;;;;;;6.82;2.47;;;5.00;89.40;;;;;;5011618;28;19921;-49
2021/04/11 09:01:50;;;;;;;7.72;3.30;;;5.10;89.70;;;;;;5018010;28;20111;-50
2021/04/11 09:04:58;;;;;;;6.35;1.90;;;5.10;87.10;;;;;;5019323;28;20038;-48
2021/04/11 09:07:47;;;;;;;6.07;2.13;;;5.10;87.10;;;;;;5014146;28;20132;-50
2021/04/11 09:10:28;;;;;;;6.63;2.60;;;5.10;86.80;;;;;;5009304;28;20487;-48
2021/04/11 09:13:10;;;;;;;5.97;3.55;;;5.10;87.10;;;;;;5033752;28;20160;-47
2021/04/11 09:15:52;;;;;;;9.93;4.03;;;5.10;85.90;;;;;;5017773;28;20072;-47
2021/04/11 09:18:24;;;;;;;7.63;1.95;;;5.20;85.00;;;;;;5023793;28;20053;-48
2021/04/11 09:21:08;;;;;;;;;;;5.10;86.00;;;;;;5018593;28;20095;-48
2021/04/11 09:23:49;;;;;;;7.55;3.72;;;5.10;86.30;;;;;;5022494;28;19918;-47
2021/04/11 09:26:45;;;;;;;11.48;5.10;;;5.10;87.20;;;;;;5018579;28;20057;-48
2021/04/11 09:29:41;;;;;;;4.75;2.10;;;5.20;87.80;;;;;;5018435;28;20200;-47
2021/04/11 09:32:13;;;;;;;6.57;1.83;;;5.40;88.20;;;;;;5022023;28;20521;-49
2021/04/11 09:35:03;;;;;;;;;;;5.50;87.70;;;;;;5016865;28;20038;-47
2021/04/11 09:38:21;;;;;;;4.45;1.55;;;5.60;84.80;;;;;;5017687;28;19996;-48
2021/04/11 09:41:13;;;;;;;4.55;1.48;;;5.70;83.40;;;;;;5023766;28;20056;-48
2021/04/11 09:43:59;;;;;;;3.10;1.55;;;5.60;83.70;;;;;;5020988;28;20053;-50
2021/04/11 09:46:38;;;;;;;3.70;1.70;;;5.60;85.00;;;;;;5030161;28;20056;-48
2021/04/11 09:49:16;;;;;;;5.13;1.80;;;5.50;85.80;;;;;;5014101;28;20493;-47
2021/04/11 09:52:25;;;;;;;4.47;1.60;;;5.40;87.50;;;;;;5017216;28;20561;-49
2021/04/11 09:55:10;;;;;;;4.65;1.70;;;5.40;88.20;;;;;;5018747;28;20058;-52
2021/04/11 09:58:02;;;;;;;6.22;1.83;;;5.40;88.70;;;;;;5028935;28;20498;-47
2021/04/11 10:00:54;;;;;;;7.05;2.00;;;5.30;88.90;;;;;;5021540;28;20176;-48
2021/04/11 10:03:39;;;;;;;4.55;1.60;;;5.30;89.20;;;;;;5024845;28;20568;-48
2021/04/11 10:06:22;;;;;;;6.97;1.80;;;5.30;89.40;;;;;;5021323;28;20068;-50
2021/04/11 10:09:18;;;;;;;5.65;1.58;;;5.30;89.60;;;;;;5031909;28;20120;-50
2021/04/11 10:11:54;;;;;;;6.32;1.70;;;5.30;88.50;;;;;;5047749;28;20044;-47
2021/04/11 10:14:23;;;;;;;7.00;3.10;;;5.40;89.40;;;;;;5029144;28;20561;-50
2021/04/11 10:17:03;;;;;;;3.50;1.90;;;5.50;89.20;;;;;;5016588;28;20037;-47
2021/04/11 10:19:35;;;;;;;6.50;1.90;;;5.60;88.20;;;;;;5021788;28;20087;-49
2021/04/11 10:22:23;;;;;;;4.07;1.90;;;5.60;88.70;;;;;;5023310;28;20514;-48
2021/04/11 10:25:18;;;;;;;9.82;2.85;;;5.70;88.50;;;;;;5020512;28;20314;-46
2021/04/11 10:27:56;;;;;;;7.20;2.58;;;5.80;87.60;;;;;;5017072;28;20479;-47
2021/04/11 10:30:23;;;;;;;5.20;2.65;;;5.90;85.80;;;;;;5015823;28;20046;-50
2021/04/11 10:33:05;;;;;;;4.05;1.60;;;5.90;85.50;;;;;;5027722;28;20128;-47
2021/04/11 10:35:42;;;;;;;7.85;1.92;;;5.90;84.60;;;;;;5017592;28;20490;-51
2021/04/11 10:38:14;;;;;;;9.35;1.90;;;5.90;85.30;;;;;;5015253;28;20107;-48
2021/04/11 10:41:01;;;;;;;5.80;1.90;;;6.00;85.20;;;;;;5025397;28;20084;-47
2021/04/11 10:43:54;;;;;;;4.65;1.63;;;5.90;85.60;;;;;;5030923;28;20034;-47
2021/04/11 10:46:45;;;;;;;4.75;1.45;;;5.90;85.80;;;;;;5039574;28;20498;-48
2021/04/11 10:50:04;;;;;;;4.25;1.60;;;5.80;86.80;;;;;;5017975;28;20077;-48
2021/04/11 10:52:41;;;;;;;1.58;1.08;;;5.70;86.90;;;;;;5023113;28;20457;-48
2021/04/11 10:55:30;;;;;;;3.80;1.73;;;5.70;87.80;;;;;;5028539;28;20076;-47
2021/04/11 10:57:59;;;;;;;5.32;2.20;;;5.80;88.40;;;;;;5025719;28;20813;-49
2021/04/11 11:01:01;;;;;;;5.57;1.95;;;6.00;86.00;;;;;;5018884;28;20132;-49
2021/04/11 11:03:55;;;;;;;4.03;1.50;;;6.00;85.40;;;;;;5018509;28;20049;-48
2021/04/11 11:06:44;;;;;;;4.47;2.08;;;6.10;87.20;;;;;;5036254;28;20494;-47
2021/04/11 11:09:24;;;;;;;7.85;2.85;;;6.30;85.90;;;;;;5016967;28;20077;-48
2021/04/11 11:12:30;;;;;;;9.73;5.20;;;6.20;84.80;;;;;;5014724;28;20366;-47
2021/04/11 11:15:06;;;;;;;8.90;2.30;;;6.20;83.30;;;;;;5019134;28;20091;-50
2021/04/11 11:17:49;;;;;;;6.20;1.98;;;5.90;83.70;;;;;;5019716;28;20042;-48
2021/04/11 11:20:20;;;;;;;3.85;1.90;;;5.80;84.30;;;;;;5024662;28;20416;-47
2021/04/11 11:23:30;;;;;;;7.43;2.75;;;5.80;84.20;;;;;;5025874;28;20044;-47
2021/04/11 11:26:24;;;;;;;6.43;2.15;;;5.80;86.00;;;;;;5031167;28;20035;-47
2021/04/11 11:29:20;;;;;;;7.18;1.85;;;5.70;87.20;;;;;;5026694;28;20046;-47
2021/04/11 11:32:05;;;;;;;17.65;9.15;;;5.90;88.10;;;;;;5017074;28;20088;-47
2021/04/11 11:34:51;;;;;;;3.50;2.05;;;6.00;87.90;;;;;;5014183;28;20061;-47
2021/04/11 11:37:28;;;;;;;9.55;5.55;;;6.10;86.10;;;;;;5028693;28;20073;-47
2021/04/11 11:40:22;;;;;;;3.58;1.50;;;6.10;86.10;;;;;;5019793;28;20529;-48
2021/04/11 11:43:15;;;;;;;2.10;1.23;;;6.10;85.20;;;;;;5025282;28;20053;-47
2021/04/11 11:46:00;;;;;;;6.72;1.40;;;6.10;85.20;;;;;;5017809;28;20116;-48
2021/04/11 11:48:52;;;;;;;6.28;2.38;;;6.20;84.60;;;;;;5012529;28;20053;-48
2021/04/11 11:51:39;;;;;;;6.88;2.42;;;6.20;83.60;;;;;;5021500;28;20043;-48
2021/04/11 11:54:10;;;;;;;5.65;2.00;;;6.30;82.00;;;;;;5019264;28;20041;-48
2021/04/11 11:56:42;;;;;;;6.25;1.52;;;6.40;82.40;;;;;;5012810;28;20042;-48
2021/04/11 11:59:25;;;;;;;7.15;2.08;;;6.40;83.30;;;;;;5022629;28;20084;-47
2021/04/11 12:02:03;;;;;;;5.28;1.20;;;6.50;82.10;;;;;;5012342;28;20044;-48
2021/04/11 12:04:50;;;;;;;9.52;5.30;;;6.60;80.10;;;;;;5013271;28;20124;-50
2021/04/11 12:07:23;;;;;;;6.88;2.45;;;6.70;81.20;;;;;;5015195;28;20127;-47
2021/04/11 12:10:12;;;;;;;6.18;2.10;;;7.00;76.70;;;;;;5022170;28;20071;-47
2021/04/11 12:12:45;;;;;;;3.72;2.00;;;6.90;77.20;;;;;;5017934;28;20049;-47
2021/04/11 12:15:34;;;;;;;4.50;2.55;;;6.90;78.10;;;;;;5028437;28;20509;-48
2021/04/11 12:18:05;;;;;;;3.78;1.25;;;6.90;77.90;;;;;;5022373;28;20045;-47
2021/04/11 12:20:58;;;;;;;4.47;1.83;;;6.80;78.20;;;;;;5028032;28;20461;-49
2021/04/11 12:23:59;;;;;;;4.82;1.42;;;6.70;77.10;;;;;;5012926;28;20033;-47
2021/04/11 12:26:26;;;;;;;4.68;1.30;;;6.40;79.40;;;;;;5018256;28;20060;-48
2021/04/11 12:28:54;;;;;;;2.20;1.17;;;6.20;80.80;;;;;;5017034;28;20085;-47
2021/04/11 12:31:24;;;;;;;5.25;1.20;;;6.10;81.70;;;;;;5017738;28;20037;-49
2021/04/11 12:34:15;;;;;;;4.15;2.58;;;6.10;82.40;;;;;;5029435;28;20060;-48
2021/04/11 12:37:10;;;;;;;4.65;2.17;;;6.00;83.00;;;;;;5017885;28;20038;-47
2021/04/11 12:39:37;;;;;;;5.40;2.35;;;6.10;84.10;;;;;;5020655;28;20482;-47
2021/04/11 12:42:22;;;;;;;3.60;1.10;;;6.20;83.40;;;;;;5021839;28;20043;-48
2021/04/11 12:45:13;;;;;;;5.00;1.30;;;6.40;84.70;;;;;;5025568;28;20117;-47
2021/04/11 12:47:42;;;;;;;1.80;1.13;;;6.50;83.80;;;;;;5018908;28;20137;-47
2021/04/11 12:50:52;;;;;;;6.25;2.00;;;6.60;83.30;;;;;;5020384;28;20091;-48
2021/04/11 12:53:23;;;;;;;13.38;6.55;;;6.50;82.50;;;;;;5019520;28;20037;-48
2021/04/11 12:55:54;;;;;;;9.18;4.70;;;6.40;81.30;;;;;;5019234;28;20107;-48
2021/04/11 12:58:25;;;;;;;10.45;4.93;;;6.20;83.10;;;;;;5019970;28;20483;-47
2021/04/11 13:01:00;;;;;;;4.93;1.88;;;6.00;85.10;;;;;;5018363;28;20068;-48
2021/04/11 13:03:37;;;;;;;4.15;1.25;;;6.00;85.90;;;;;;5026792;28;20053;-48
2021/04/11 13:06:25;;;;;;;5.90;1.52;;;6.00;85.30;;;;;;5012565;28;20040;-48
2021/04/11 13:09:23;;;;;;;2.05;1.38;;;6.00;85.10;;;;;;5012855;28;20046;-48
2021/04/11 13:11:58;;;;;;;6.03;2.15;;;6.20;85.20;;;;;;5017439;28;20539;-48
2021/04/11 13:14:48;;;;;;;4.78;2.28;;;6.30;84.40;;;;;;5011910;28;20113;-47
2021/04/11 13:17:36;;;;;;;5.47;2.13;;;6.30;83.80;;;;;;5011761;28;20057;-49
2021/04/11 13:20:11;;;;;;;4.32;1.48;;;6.60;82.30;;;;;;5013712;28;20046;-48
2021/04/11 13:22:49;;;;;;;5.65;1.73;;;6.70;80.40;;;;;;5024781;28;20410;-47
2021/04/11 13:25:28;;;;;;;5.35;1.65;;;6.70;81.00;;;;;;5009980;28;20037;-49
2021/04/11 13:28:06;;;;;;;4.18;1.70;;;6.70;77.40;;;;;;5014188;28;20081;-51
2021/04/11 13:30:44;;;;;;;2.97;1.60;;;6.80;76.50;;;;;;5015373;28;20037;-48
2021/04/11 13:33:18;;;;;;;4.80;1.48;;;6.80;76.10;;;;;;5017757;28;21155;-48
2021/04/11 13:36:02;;;;;;;6.60;1.50;;;6.80;76.20;;;;;;5015640;28;20125;-47
2021/04/11 13:38:38;;;;;;;4.00;1.95;;;6.80;75.50;;;;;;5030016;28;20057;-47
2021/04/11 13:41:37;;;;;;;2.38;1.25;;;6.90;77.30;;;;;;5026981;28;20045;-48
2021/04/11 13:44:14;;;;;;;3.97;1.60;;;7.20;78.10;;;;;;5019579;28;20037;-49
2021/04/11 13:46:51;;;;;;;6.40;1.27;;;7.40;77.70;;;;;;5030300;28;20045;-48
2021/04/11 13:49:55;;;;;;;4.57;1.52;;;7.50;76.70;;;;;;5021391;28;20065;-47
2021/04/11 13:52:38;;;;;;;3.30;1.50;;;7.50;75.30;;;;;;5013636;28;20055;-48
2021/04/11 13:55:32;;;;;;;3.00;1.50;;;7.50;74.50;;;;;;5032570;28;20417;-47
2021/04/11 13:58:31;;;;;;;5.65;1.80;;;7.50;73.70;;;;;;5030229;28;20456;-48
2021/04/11 14:01:10;;;;;;;5.82;1.60;;;7.50;74.40;;;;;;5030537;28;20494;-47